sensor_id;sensor_type;location;lat;lon;timestamp;P1;durP1;ratioP1;P2;durP2;ratioP2
49488;SDS011;35382;51.484;11.476;2023-12-28T00:00:47;4.18;;;2.03;;
49488;SDS011;35382;51.484;11.476;2023-12-28T00:03:12;5.00;;;2.05;;
49488;SDS011;35382;51.484;11.476;2023-12-28T00:05:38;5.25;;;2.00;;
49488;SDS011;35382;51.484;11.476;2023-12-28T00:08:03;2.92;;;1.60;;
49488;SDS011;35382;51.484;11.476;2023-12-28T00:10:29;5.63;;;1.88;;
49488;SDS011;35382;51.484;11.476;2023-12-28T00:12:54;2.92;;;1.90;;
49488;SDS011;35382;51.484;11.476;2023-12-28T00:15:20;4.25;;;2.10;;
49488;SDS011;35382;51.484;11.476;2023-12-28T00:17:45;4.18;;;1.70;;
49488;SDS011;35382;51.484;11.476;2023-12-28T00:20:11;5.30;;;1.70;;
49488;SDS011;35382;51.484;11.476;2023-12-28T00:22:37;5.63;;;1.85;;
49488;SDS011;35382;51.484;11.476;2023-12-28T00:25:06;4.35;;;1.90;;
49488;SDS011;35382;51.484;11.476;2023-12-28T00:27:31;4.80;;;2.00;;
49488;SDS011;35382;51.484;11.476;2023-12-28T00:29:57;5.15;;;2.00;;
49488;SDS011;35382;51.484;11.476;2023-12-28T00:32:22;3.88;;;1.85;;
49488;SDS011;35382;51.484;11.476;2023-12-28T00:34:48;4.60;;;1.98;;
49488;SDS011;35382;51.484;11.476;2023-12-28T00:37:13;4.88;;;1.70;;
49488;SDS011;35382;51.484;11.476;2023-12-28T00:39:39;5.65;;;2.05;;
49488;SDS011;35382;51.484;11.476;2023-12-28T00:42:04;4.40;;;1.88;;
49488;SDS011;35382;51.484;11.476;2023-12-28T00:44:30;4.15;;;2.05;;
49488;SDS011;35382;51.484;11.476;2023-12-28T00:46:55;5.40;;;2.20;;
49488;SDS011;35382;51.484;11.476;2023-12-28T00:49:21;4.78;;;2.40;;
49488;SDS011;35382;51.484;11.476;2023-12-28T00:51:47;4.30;;;1.80;;
49488;SDS011;35382;51.484;11.476;2023-12-28T00:54:12;4.63;;;2.20;;
49488;SDS011;35382;51.484;11.476;2023-12-28T00:56:37;3.88;;;1.70;;
49488;SDS011;35382;51.484;11.476;2023-12-28T00:59:03;5.50;;;2.00;;
49488;SDS011;35382;51.484;11.476;2023-12-28T01:01:28;3.83;;;1.98;;
49488;SDS011;35382;51.484;11.476;2023-12-28T01:03:54;4.85;;;2.15;;
49488;SDS011;35382;51.484;11.476;2023-12-28T01:06:19;5.03;;;2.00;;
49488;SDS011;35382;51.484;11.476;2023-12-28T01:08:44;4.55;;;2.13;;
49488;SDS011;35382;51.484;11.476;2023-12-28T01:11:10;4.95;;;1.83;;
49488;SDS011;35382;51.484;11.476;2023-12-28T01:13:36;3.97;;;1.95;;
49488;SDS011;35382;51.484;11.476;2023-12-28T01:16:01;3.10;;;1.80;;
49488;SDS011;35382;51.484;11.476;2023-12-28T01:18:26;4.32;;;2.25;;
49488;SDS011;35382;51.484;11.476;2023-12-28T01:20:52;3.60;;;1.90;;
49488;SDS011;35382;51.484;11.476;2023-12-28T01:23:17;3.63;;;1.63;;
49488;SDS011;35382;51.484;11.476;2023-12-28T01:25:43;3.40;;;1.60;;
49488;SDS011;35382;51.484;11.476;2023-12-28T01:28:08;5.28;;;1.80;;
49488;SDS011;35382;51.484;11.476;2023-12-28T01:30:33;3.97;;;1.85;;
49488;SDS011;35382;51.484;11.476;2023-12-28T01:32:59;6.13;;;2.35;;
49488;SDS011;35382;51.484;11.476;2023-12-28T01:35:24;5.43;;;2.00;;
49488;SDS011;35382;51.484;11.476;2023-12-28T01:37:49;5.32;;;2.17;;
49488;SDS011;35382;51.484;11.476;2023-12-28T01:40:15;4.68;;;1.85;;
49488;SDS011;35382;51.484;11.476;2023-12-28T01:42:41;6.25;;;2.00;;
49488;SDS011;35382;51.484;11.476;2023-12-28T01:45:07;5.65;;;1.88;;
49488;SDS011;35382;51.484;11.476;2023-12-28T01:47:33;4.20;;;1.90;;
49488;SDS011;35382;51.484;11.476;2023-12-28T01:49:59;4.32;;;2.10;;
49488;SDS011;35382;51.484;11.476;2023-12-28T01:52:25;3.70;;;1.63;;
49488;SDS011;35382;51.484;11.476;2023-12-28T01:54:52;4.53;;;1.92;;
49488;SDS011;35382;51.484;11.476;2023-12-28T01:57:17;4.40;;;2.10;;
49488;SDS011;35382;51.484;11.476;2023-12-28T01:59:43;3.67;;;1.83;;
49488;SDS011;35382;51.484;11.476;2023-12-28T02:02:09;4.63;;;2.03;;
49488;SDS011;35382;51.484;11.476;2023-12-28T02:04:36;4.47;;;2.30;;
49488;SDS011;35382;51.484;11.476;2023-12-28T02:07:01;3.90;;;2.15;;
49488;SDS011;35382;51.484;11.476;2023-12-28T02:09:28;4.10;;;1.93;;
49488;SDS011;35382;51.484;11.476;2023-12-28T02:11:53;5.15;;;2.15;;
49488;SDS011;35382;51.484;11.476;2023-12-28T02:14:19;3.58;;;2.00;;
49488;SDS011;35382;51.484;11.476;2023-12-28T02:16:48;3.28;;;1.67;;
49488;SDS011;35382;51.484;11.476;2023-12-28T02:19:31;4.35;;;1.90;;
49488;SDS011;35382;51.484;11.476;2023-12-28T02:22:01;4.78;;;1.88;;
49488;SDS011;35382;51.484;11.476;2023-12-28T02:24:27;4.50;;;1.92;;
49488;SDS011;35382;51.484;11.476;2023-12-28T02:26:53;6.38;;;2.15;;
49488;SDS011;35382;51.484;11.476;2023-12-28T02:29:18;4.78;;;2.00;;
49488;SDS011;35382;51.484;11.476;2023-12-28T02:32:05;5.47;;;2.00;;
49488;SDS011;35382;51.484;11.476;2023-12-28T02:34:33;5.82;;;2.13;;
49488;SDS011;35382;51.484;11.476;2023-12-28T02:37:02;3.35;;;1.50;;
49488;SDS011;35382;51.484;11.476;2023-12-28T02:39:29;4.00;;;1.83;;
49488;SDS011;35382;51.484;11.476;2023-12-28T02:41:55;3.92;;;1.80;;
49488;SDS011;35382;51.484;11.476;2023-12-28T02:44:21;4.35;;;2.05;;
49488;SDS011;35382;51.484;11.476;2023-12-28T02:46:46;4.22;;;1.98;;
49488;SDS011;35382;51.484;11.476;2023-12-28T02:49:12;5.45;;;1.95;;
49488;SDS011;35382;51.484;11.476;2023-12-28T02:51:37;4.68;;;1.70;;
49488;SDS011;35382;51.484;11.476;2023-12-28T02:54:03;3.85;;;1.88;;
49488;SDS011;35382;51.484;11.476;2023-12-28T02:56:28;8.77;;;2.92;;
49488;SDS011;35382;51.484;11.476;2023-12-28T02:58:53;3.50;;;1.80;;
49488;SDS011;35382;51.484;11.476;2023-12-28T03:01:19;3.63;;;1.88;;
49488;SDS011;35382;51.484;11.476;2023-12-28T03:03:44;6.53;;;1.90;;
49488;SDS011;35382;51.484;11.476;2023-12-28T03:06:09;4.68;;;2.10;;
49488;SDS011;35382;51.484;11.476;2023-12-28T03:08:35;4.40;;;1.92;;
49488;SDS011;35382;51.484;11.476;2023-12-28T03:11:00;4.10;;;1.95;;
49488;SDS011;35382;51.484;11.476;2023-12-28T03:13:25;3.78;;;2.20;;
49488;SDS011;35382;51.484;11.476;2023-12-28T03:15:51;4.97;;;2.20;;
49488;SDS011;35382;51.484;11.476;2023-12-28T03:18:16;4.05;;;2.03;;
49488;SDS011;35382;51.484;11.476;2023-12-28T03:20:41;4.47;;;1.95;;
49488;SDS011;35382;51.484;11.476;2023-12-28T03:23:07;4.25;;;2.10;;
49488;SDS011;35382;51.484;11.476;2023-12-28T03:25:32;3.95;;;2.35;;
49488;SDS011;35382;51.484;11.476;2023-12-28T03:27:58;5.97;;;1.95;;
49488;SDS011;35382;51.484;11.476;2023-12-28T03:30:26;5.45;;;1.95;;
49488;SDS011;35382;51.484;11.476;2023-12-28T03:32:51;5.13;;;2.00;;
49488;SDS011;35382;51.484;11.476;2023-12-28T03:35:16;6.40;;;2.17;;
49488;SDS011;35382;51.484;11.476;2023-12-28T03:37:42;4.65;;;2.00;;
49488;SDS011;35382;51.484;11.476;2023-12-28T03:40:08;4.68;;;1.92;;
49488;SDS011;35382;51.484;11.476;2023-12-28T03:42:33;4.68;;;2.20;;
49488;SDS011;35382;51.484;11.476;2023-12-28T03:44:59;4.13;;;1.70;;
49488;SDS011;35382;51.484;11.476;2023-12-28T03:47:24;4.20;;;2.08;;
49488;SDS011;35382;51.484;11.476;2023-12-28T03:49:49;3.95;;;2.20;;
49488;SDS011;35382;51.484;11.476;2023-12-28T03:52:15;5.13;;;2.47;;
49488;SDS011;35382;51.484;11.476;2023-12-28T03:54:40;4.68;;;2.38;;
49488;SDS011;35382;51.484;11.476;2023-12-28T03:57:06;4.00;;;2.10;;
49488;SDS011;35382;51.484;11.476;2023-12-28T03:59:31;7.10;;;2.35;;
49488;SDS011;35382;51.484;11.476;2023-12-28T04:01:57;5.10;;;2.00;;
49488;SDS011;35382;51.484;11.476;2023-12-28T04:04:22;5.65;;;2.30;;
49488;SDS011;35382;51.484;11.476;2023-12-28T04:06:48;3.78;;;1.92;;
49488;SDS011;35382;51.484;11.476;2023-12-28T04:09:13;4.28;;;2.15;;
49488;SDS011;35382;51.484;11.476;2023-12-28T04:11:39;5.53;;;2.20;;
49488;SDS011;35382;51.484;11.476;2023-12-28T04:14:05;5.07;;;2.05;;
49488;SDS011;35382;51.484;11.476;2023-12-28T04:16:30;4.95;;;2.42;;
49488;SDS011;35382;51.484;11.476;2023-12-28T04:18:55;4.60;;;2.28;;
49488;SDS011;35382;51.484;11.476;2023-12-28T04:21:21;3.58;;;1.95;;
49488;SDS011;35382;51.484;11.476;2023-12-28T04:23:46;4.90;;;2.55;;
49488;SDS011;35382;51.484;11.476;2023-12-28T04:26:12;5.18;;;2.35;;
49488;SDS011;35382;51.484;11.476;2023-12-28T04:28:37;5.13;;;2.35;;
49488;SDS011;35382;51.484;11.476;2023-12-28T04:31:05;4.68;;;2.28;;
49488;SDS011;35382;51.484;11.476;2023-12-28T04:33:31;5.30;;;2.33;;
49488;SDS011;35382;51.484;11.476;2023-12-28T04:35:57;4.95;;;2.00;;
49488;SDS011;35382;51.484;11.476;2023-12-28T04:38:25;5.60;;;2.60;;
49488;SDS011;35382;51.484;11.476;2023-12-28T04:40:51;5.28;;;2.38;;
49488;SDS011;35382;51.484;11.476;2023-12-28T04:43:16;5.78;;;2.40;;
49488;SDS011;35382;51.484;11.476;2023-12-28T04:45:42;4.57;;;2.50;;
49488;SDS011;35382;51.484;11.476;2023-12-28T04:48:07;4.18;;;2.30;;
49488;SDS011;35382;51.484;11.476;2023-12-28T04:50:33;6.18;;;2.30;;
49488;SDS011;35382;51.484;11.476;2023-12-28T04:52:58;5.03;;;2.50;;
49488;SDS011;35382;51.484;11.476;2023-12-28T04:55:24;4.97;;;2.72;;
49488;SDS011;35382;51.484;11.476;2023-12-28T04:57:49;6.05;;;3.13;;
49488;SDS011;35382;51.484;11.476;2023-12-28T05:00:19;5.45;;;2.47;;
49488;SDS011;35382;51.484;11.476;2023-12-28T05:02:46;5.68;;;2.80;;
49488;SDS011;35382;51.484;11.476;2023-12-28T05:05:11;5.25;;;3.05;;
49488;SDS011;35382;51.484;11.476;2023-12-28T05:07:37;5.57;;;2.53;;
49488;SDS011;35382;51.484;11.476;2023-12-28T05:10:03;4.82;;;2.80;;
49488;SDS011;35382;51.484;11.476;2023-12-28T05:12:29;5.53;;;2.67;;
49488;SDS011;35382;51.484;11.476;2023-12-28T05:14:55;6.25;;;2.72;;
49488;SDS011;35382;51.484;11.476;2023-12-28T05:17:20;4.63;;;2.78;;
49488;SDS011;35382;51.484;11.476;2023-12-28T05:19:45;5.78;;;2.92;;
49488;SDS011;35382;51.484;11.476;2023-12-28T05:22:11;5.88;;;3.00;;
49488;SDS011;35382;51.484;11.476;2023-12-28T05:24:36;5.90;;;2.95;;
49488;SDS011;35382;51.484;11.476;2023-12-28T05:27:02;6.30;;;2.72;;
49488;SDS011;35382;51.484;11.476;2023-12-28T05:29:29;6.28;;;3.22;;
49488;SDS011;35382;51.484;11.476;2023-12-28T05:31:55;6.15;;;2.80;;
49488;SDS011;35382;51.484;11.476;2023-12-28T05:34:20;5.90;;;3.17;;
49488;SDS011;35382;51.484;11.476;2023-12-28T05:36:45;5.07;;;2.70;;
49488;SDS011;35382;51.484;11.476;2023-12-28T05:39:11;8.30;;;3.67;;
49488;SDS011;35382;51.484;11.476;2023-12-28T05:41:36;5.38;;;2.53;;
49488;SDS011;35382;51.484;11.476;2023-12-28T05:44:02;5.10;;;2.80;;
49488;SDS011;35382;51.484;11.476;2023-12-28T05:46:27;5.30;;;2.72;;
49488;SDS011;35382;51.484;11.476;2023-12-28T05:48:54;6.50;;;3.17;;
49488;SDS011;35382;51.484;11.476;2023-12-28T05:51:20;4.72;;;2.70;;
49488;SDS011;35382;51.484;11.476;2023-12-28T05:53:45;5.25;;;2.95;;
49488;SDS011;35382;51.484;11.476;2023-12-28T05:56:11;5.18;;;2.80;;
49488;SDS011;35382;51.484;11.476;2023-12-28T05:58:36;7.53;;;2.90;;
49488;SDS011;35382;51.484;11.476;2023-12-28T06:01:01;5.97;;;2.95;;
49488;SDS011;35382;51.484;11.476;2023-12-28T06:03:27;7.18;;;2.90;;
49488;SDS011;35382;51.484;11.476;2023-12-28T06:05:52;7.07;;;3.17;;
49488;SDS011;35382;51.484;11.476;2023-12-28T06:08:18;9.38;;;3.10;;
49488;SDS011;35382;51.484;11.476;2023-12-28T06:10:45;5.65;;;3.00;;
49488;SDS011;35382;51.484;11.476;2023-12-28T06:13:11;5.25;;;2.70;;
49488;SDS011;35382;51.484;11.476;2023-12-28T06:15:36;6.25;;;3.00;;
49488;SDS011;35382;51.484;11.476;2023-12-28T06:18:04;7.63;;;3.13;;
49488;SDS011;35382;51.484;11.476;2023-12-28T06:20:29;7.53;;;3.30;;
49488;SDS011;35382;51.484;11.476;2023-12-28T06:22:55;6.50;;;2.85;;
49488;SDS011;35382;51.484;11.476;2023-12-28T06:25:20;5.85;;;3.00;;
49488;SDS011;35382;51.484;11.476;2023-12-28T06:27:46;6.78;;;3.53;;
49488;SDS011;35382;51.484;11.476;2023-12-28T06:30:11;5.88;;;3.28;;
49488;SDS011;35382;51.484;11.476;2023-12-28T06:32:37;7.07;;;3.05;;
49488;SDS011;35382;51.484;11.476;2023-12-28T06:35:02;6.78;;;3.47;;
49488;SDS011;35382;51.484;11.476;2023-12-28T06:37:28;5.20;;;3.13;;
49488;SDS011;35382;51.484;11.476;2023-12-28T06:39:53;6.43;;;3.25;;
49488;SDS011;35382;51.484;11.476;2023-12-28T06:42:19;7.55;;;3.42;;
49488;SDS011;35382;51.484;11.476;2023-12-28T06:44:44;6.50;;;3.17;;
49488;SDS011;35382;51.484;11.476;2023-12-28T06:47:09;5.97;;;2.85;;
49488;SDS011;35382;51.484;11.476;2023-12-28T06:49:35;5.80;;;3.33;;
49488;SDS011;35382;51.484;11.476;2023-12-28T06:52:00;5.32;;;3.08;;
49488;SDS011;35382;51.484;11.476;2023-12-28T06:54:25;7.55;;;3.40;;
49488;SDS011;35382;51.484;11.476;2023-12-28T06:56:51;6.03;;;3.50;;
49488;SDS011;35382;51.484;11.476;2023-12-28T06:59:16;7.10;;;3.50;;
49488;SDS011;35382;51.484;11.476;2023-12-28T07:01:42;6.65;;;3.97;;
49488;SDS011;35382;51.484;11.476;2023-12-28T07:04:07;7.50;;;3.90;;
49488;SDS011;35382;51.484;11.476;2023-12-28T07:06:33;7.10;;;4.05;;
49488;SDS011;35382;51.484;11.476;2023-12-28T07:08:58;8.40;;;3.92;;
49488;SDS011;35382;51.484;11.476;2023-12-28T07:11:24;7.53;;;3.67;;
49488;SDS011;35382;51.484;11.476;2023-12-28T07:13:49;7.13;;;3.75;;
49488;SDS011;35382;51.484;11.476;2023-12-28T07:16:17;7.43;;;3.95;;
49488;SDS011;35382;51.484;11.476;2023-12-28T07:18:42;7.43;;;3.83;;
49488;SDS011;35382;51.484;11.476;2023-12-28T07:21:07;7.95;;;3.83;;
49488;SDS011;35382;51.484;11.476;2023-12-28T07:23:33;8.23;;;4.20;;
49488;SDS011;35382;51.484;11.476;2023-12-28T07:25:58;10.52;;;4.05;;
49488;SDS011;35382;51.484;11.476;2023-12-28T07:28:24;7.22;;;3.90;;
49488;SDS011;35382;51.484;11.476;2023-12-28T07:30:49;6.97;;;3.88;;
49488;SDS011;35382;51.484;11.476;2023-12-28T07:33:14;8.63;;;4.38;;
49488;SDS011;35382;51.484;11.476;2023-12-28T07:35:40;7.43;;;4.40;;
49488;SDS011;35382;51.484;11.476;2023-12-28T07:38:05;7.43;;;4.45;;
49488;SDS011;35382;51.484;11.476;2023-12-28T07:40:31;6.72;;;3.90;;
49488;SDS011;35382;51.484;11.476;2023-12-28T07:42:56;8.07;;;4.68;;
49488;SDS011;35382;51.484;11.476;2023-12-28T07:45:22;8.45;;;4.25;;
49488;SDS011;35382;51.484;11.476;2023-12-28T07:47:47;8.52;;;4.40;;
49488;SDS011;35382;51.484;11.476;2023-12-28T07:50:13;7.88;;;3.90;;
49488;SDS011;35382;51.484;11.476;2023-12-28T07:52:38;7.63;;;4.60;;
49488;SDS011;35382;51.484;11.476;2023-12-28T07:55:04;6.80;;;4.15;;
49488;SDS011;35382;51.484;11.476;2023-12-28T07:57:29;7.10;;;4.20;;
49488;SDS011;35382;51.484;11.476;2023-12-28T07:59:55;7.47;;;4.40;;
49488;SDS011;35382;51.484;11.476;2023-12-28T08:02:20;8.10;;;4.15;;
49488;SDS011;35382;51.484;11.476;2023-12-28T08:04:45;7.93;;;4.25;;
49488;SDS011;35382;51.484;11.476;2023-12-28T08:07:11;7.38;;;4.43;;
49488;SDS011;35382;51.484;11.476;2023-12-28T08:09:36;7.13;;;4.13;;
49488;SDS011;35382;51.484;11.476;2023-12-28T08:12:02;7.70;;;4.70;;
49488;SDS011;35382;51.484;11.476;2023-12-28T08:14:27;7.63;;;4.03;;
49488;SDS011;35382;51.484;11.476;2023-12-28T08:16:52;9.50;;;4.75;;
49488;SDS011;35382;51.484;11.476;2023-12-28T08:19:18;6.35;;;4.07;;
49488;SDS011;35382;51.484;11.476;2023-12-28T08:21:43;7.80;;;4.55;;
49488;SDS011;35382;51.484;11.476;2023-12-28T08:24:09;7.35;;;4.35;;
49488;SDS011;35382;51.484;11.476;2023-12-28T08:26:36;6.63;;;3.92;;
49488;SDS011;35382;51.484;11.476;2023-12-28T08:29:02;7.05;;;4.10;;
49488;SDS011;35382;51.484;11.476;2023-12-28T08:31:27;7.68;;;3.88;;
49488;SDS011;35382;51.484;11.476;2023-12-28T08:33:53;9.45;;;4.50;;
49488;SDS011;35382;51.484;11.476;2023-12-28T08:36:18;5.88;;;3.72;;
49488;SDS011;35382;51.484;11.476;2023-12-28T08:38:43;7.47;;;3.72;;
49488;SDS011;35382;51.484;11.476;2023-12-28T08:41:17;8.63;;;4.47;;
49488;SDS011;35382;51.484;11.476;2023-12-28T08:43:46;7.22;;;3.78;;
49488;SDS011;35382;51.484;11.476;2023-12-28T08:46:12;6.07;;;3.78;;
49488;SDS011;35382;51.484;11.476;2023-12-28T08:48:37;6.72;;;3.72;;
49488;SDS011;35382;51.484;11.476;2023-12-28T08:51:02;8.02;;;3.95;;
49488;SDS011;35382;51.484;11.476;2023-12-28T08:53:28;9.07;;;3.90;;
49488;SDS011;35382;51.484;11.476;2023-12-28T08:55:53;6.32;;;3.53;;
49488;SDS011;35382;51.484;11.476;2023-12-28T08:58:18;5.38;;;3.72;;
49488;SDS011;35382;51.484;11.476;2023-12-28T09:00:44;6.07;;;3.80;;
49488;SDS011;35382;51.484;11.476;2023-12-28T09:03:09;6.85;;;3.83;;
49488;SDS011;35382;51.484;11.476;2023-12-28T09:05:34;7.38;;;3.30;;
49488;SDS011;35382;51.484;11.476;2023-12-28T09:08:00;6.70;;;3.53;;
49488;SDS011;35382;51.484;11.476;2023-12-28T09:10:25;6.50;;;3.45;;
49488;SDS011;35382;51.484;11.476;2023-12-28T09:12:51;6.03;;;3.50;;
49488;SDS011;35382;51.484;11.476;2023-12-28T09:15:16;6.63;;;3.60;;
49488;SDS011;35382;51.484;11.476;2023-12-28T09:17:41;7.75;;;3.53;;
49488;SDS011;35382;51.484;11.476;2023-12-28T09:20:07;6.88;;;3.53;;
49488;SDS011;35382;51.484;11.476;2023-12-28T09:22:33;6.32;;;3.28;;
49488;SDS011;35382;51.484;11.476;2023-12-28T09:24:58;6.10;;;3.63;;
49488;SDS011;35382;51.484;11.476;2023-12-28T09:27:24;6.18;;;3.40;;
49488;SDS011;35382;51.484;11.476;2023-12-28T09:29:49;6.20;;;3.22;;
49488;SDS011;35382;51.484;11.476;2023-12-28T09:32:14;5.30;;;3.20;;
49488;SDS011;35382;51.484;11.476;2023-12-28T09:34:40;6.78;;;3.50;;
49488;SDS011;35382;51.484;11.476;2023-12-28T09:37:05;5.85;;;3.63;;
49488;SDS011;35382;51.484;11.476;2023-12-28T09:39:31;5.57;;;3.95;;
49488;SDS011;35382;51.484;11.476;2023-12-28T09:41:59;5.95;;;3.40;;
49488;SDS011;35382;51.484;11.476;2023-12-28T09:44:30;7.00;;;3.20;;
49488;SDS011;35382;51.484;11.476;2023-12-28T09:46:56;7.07;;;3.37;;
49488;SDS011;35382;51.484;11.476;2023-12-28T09:49:21;5.70;;;3.17;;
49488;SDS011;35382;51.484;11.476;2023-12-28T09:51:47;6.15;;;3.72;;
49488;SDS011;35382;51.484;11.476;2023-12-28T09:54:13;6.13;;;3.40;;
49488;SDS011;35382;51.484;11.476;2023-12-28T09:56:38;5.68;;;3.40;;
49488;SDS011;35382;51.484;11.476;2023-12-28T09:59:05;6.00;;;3.60;;
49488;SDS011;35382;51.484;11.476;2023-12-28T10:01:31;5.90;;;3.25;;
49488;SDS011;35382;51.484;11.476;2023-12-28T10:03:59;6.15;;;3.20;;
49488;SDS011;35382;51.484;11.476;2023-12-28T10:06:24;5.90;;;3.22;;
49488;SDS011;35382;51.484;11.476;2023-12-28T10:08:50;5.50;;;3.15;;
49488;SDS011;35382;51.484;11.476;2023-12-28T10:11:15;5.60;;;3.10;;
49488;SDS011;35382;51.484;11.476;2023-12-28T10:13:42;6.72;;;3.38;;
49488;SDS011;35382;51.484;11.476;2023-12-28T10:16:07;6.32;;;3.13;;
49488;SDS011;35382;51.484;11.476;2023-12-28T10:18:34;5.68;;;3.00;;
49488;SDS011;35382;51.484;11.476;2023-12-28T10:20:59;5.40;;;3.25;;
49488;SDS011;35382;51.484;11.476;2023-12-28T10:23:25;6.63;;;3.33;;
49488;SDS011;35382;51.484;11.476;2023-12-28T10:25:50;8.63;;;3.78;;
49488;SDS011;35382;51.484;11.476;2023-12-28T10:28:16;6.88;;;3.05;;
49488;SDS011;35382;51.484;11.476;2023-12-28T10:30:41;6.72;;;3.20;;
49488;SDS011;35382;51.484;11.476;2023-12-28T10:33:07;6.07;;;3.17;;
49488;SDS011;35382;51.484;11.476;2023-12-28T10:35:33;6.05;;;3.53;;
49488;SDS011;35382;51.484;11.476;2023-12-28T10:37:59;8.10;;;3.50;;
49488;SDS011;35382;51.484;11.476;2023-12-28T10:40:25;7.80;;;3.60;;
49488;SDS011;35382;51.484;11.476;2023-12-28T10:42:52;7.10;;;3.97;;
49488;SDS011;35382;51.484;11.476;2023-12-28T10:45:19;5.28;;;3.05;;
49488;SDS011;35382;51.484;11.476;2023-12-28T10:48:05;7.55;;;3.65;;
49488;SDS011;35382;51.484;11.476;2023-12-28T10:50:39;5.93;;;2.92;;
49488;SDS011;35382;51.484;11.476;2023-12-28T10:53:26;6.70;;;3.00;;
49488;SDS011;35382;51.484;11.476;2023-12-28T10:58:50;5.40;;;3.40;;
49488;SDS011;35382;51.484;11.476;2023-12-28T11:01:42;5.40;;;2.88;;
49488;SDS011;35382;51.484;11.476;2023-12-28T11:06:52;5.80;;;2.95;;
49488;SDS011;35382;51.484;11.476;2023-12-28T11:09:18;6.03;;;2.85;;
49488;SDS011;35382;51.484;11.476;2023-12-28T11:11:46;5.32;;;2.92;;
49488;SDS011;35382;51.484;11.476;2023-12-28T11:14:15;5.55;;;3.17;;
49488;SDS011;35382;51.484;11.476;2023-12-28T11:16:42;4.78;;;2.42;;
49488;SDS011;35382;51.484;11.476;2023-12-28T11:19:08;5.10;;;2.60;;
49488;SDS011;35382;51.484;11.476;2023-12-28T11:21:34;5.85;;;2.83;;
49488;SDS011;35382;51.484;11.476;2023-12-28T11:24:00;4.95;;;2.50;;
49488;SDS011;35382;51.484;11.476;2023-12-28T11:26:26;5.15;;;3.00;;
49488;SDS011;35382;51.484;11.476;2023-12-28T11:29:00;4.45;;;2.38;;
49488;SDS011;35382;51.484;11.476;2023-12-28T11:33:57;5.82;;;2.53;;
49488;SDS011;35382;51.484;11.476;2023-12-28T11:36:24;5.28;;;2.42;;
49488;SDS011;35382;51.484;11.476;2023-12-28T11:38:56;4.70;;;2.38;;
49488;SDS011;35382;51.484;11.476;2023-12-28T11:41:26;5.95;;;2.50;;
49488;SDS011;35382;51.484;11.476;2023-12-28T11:43:52;5.68;;;2.20;;
49488;SDS011;35382;51.484;11.476;2023-12-28T11:46:20;5.43;;;2.33;;
49488;SDS011;35382;51.484;11.476;2023-12-28T11:48:46;5.07;;;2.33;;
49488;SDS011;35382;51.484;11.476;2023-12-28T11:51:11;4.68;;;2.25;;
49488;SDS011;35382;51.484;11.476;2023-12-28T11:53:37;4.15;;;2.15;;
49488;SDS011;35382;51.484;11.476;2023-12-28T11:56:03;6.25;;;2.55;;
49488;SDS011;35382;51.484;11.476;2023-12-28T11:58:28;4.93;;;2.50;;
49488;SDS011;35382;51.484;11.476;2023-12-28T12:00:54;5.10;;;2.50;;
49488;SDS011;35382;51.484;11.476;2023-12-28T12:03:19;5.68;;;2.17;;
49488;SDS011;35382;51.484;11.476;2023-12-28T12:05:44;4.25;;;2.33;;
49488;SDS011;35382;51.484;11.476;2023-12-28T12:08:10;6.18;;;2.15;;
49488;SDS011;35382;51.484;11.476;2023-12-28T12:10:35;6.55;;;2.70;;
49488;SDS011;35382;51.484;11.476;2023-12-28T12:13:01;4.57;;;2.30;;
49488;SDS011;35382;51.484;11.476;2023-12-28T12:15:26;4.53;;;2.13;;
49488;SDS011;35382;51.484;11.476;2023-12-28T12:17:52;4.40;;;2.15;;
49488;SDS011;35382;51.484;11.476;2023-12-28T12:20:17;4.32;;;2.10;;
49488;SDS011;35382;51.484;11.476;2023-12-28T12:22:43;5.97;;;2.40;;
49488;SDS011;35382;51.484;11.476;2023-12-28T12:25:08;4.47;;;2.00;;
49488;SDS011;35382;51.484;11.476;2023-12-28T12:27:34;4.72;;;1.98;;
49488;SDS011;35382;51.484;11.476;2023-12-28T12:30:01;5.15;;;2.30;;
49488;SDS011;35382;51.484;11.476;2023-12-28T12:32:26;5.45;;;2.00;;
49488;SDS011;35382;51.484;11.476;2023-12-28T12:34:52;3.72;;;1.88;;
49488;SDS011;35382;51.484;11.476;2023-12-28T12:37:18;5.25;;;2.10;;
49488;SDS011;35382;51.484;11.476;2023-12-28T12:39:43;4.50;;;2.08;;
49488;SDS011;35382;51.484;11.476;2023-12-28T12:42:13;4.00;;;2.20;;
49488;SDS011;35382;51.484;11.476;2023-12-28T12:44:39;6.78;;;2.10;;
49488;SDS011;35382;51.484;11.476;2023-12-28T12:47:04;5.63;;;2.00;;
49488;SDS011;35382;51.484;11.476;2023-12-28T12:49:30;4.88;;;2.20;;
49488;SDS011;35382;51.484;11.476;2023-12-28T12:51:56;4.70;;;2.00;;
49488;SDS011;35382;51.484;11.476;2023-12-28T12:54:21;6.13;;;2.13;;
49488;SDS011;35382;51.484;11.476;2023-12-28T12:56:47;3.90;;;2.03;;
49488;SDS011;35382;51.484;11.476;2023-12-28T12:59:12;5.05;;;1.90;;
49488;SDS011;35382;51.484;11.476;2023-12-28T13:01:38;4.55;;;2.13;;
49488;SDS011;35382;51.484;11.476;2023-12-28T13:04:04;5.30;;;1.63;;
49488;SDS011;35382;51.484;11.476;2023-12-28T13:08:56;6.03;;;1.75;;
49488;SDS011;35382;51.484;11.476;2023-12-28T13:11:22;3.75;;;1.70;;
49488;SDS011;35382;51.484;11.476;2023-12-28T13:13:49;3.75;;;1.70;;
49488;SDS011;35382;51.484;11.476;2023-12-28T13:16:15;3.13;;;1.50;;
49488;SDS011;35382;51.484;11.476;2023-12-28T13:18:40;5.68;;;1.90;;
49488;SDS011;35382;51.484;11.476;2023-12-28T13:21:05;4.35;;;1.88;;
49488;SDS011;35382;51.484;11.476;2023-12-28T13:23:31;3.47;;;1.80;;
49488;SDS011;35382;51.484;11.476;2023-12-28T13:25:57;2.78;;;1.73;;
49488;SDS011;35382;51.484;11.476;2023-12-28T13:28:22;5.65;;;2.00;;
49488;SDS011;35382;51.484;11.476;2023-12-28T13:30:47;4.45;;;2.00;;
49488;SDS011;35382;51.484;11.476;2023-12-28T13:33:13;3.40;;;1.70;;
49488;SDS011;35382;51.484;11.476;2023-12-28T13:35:38;5.03;;;1.70;;
49488;SDS011;35382;51.484;11.476;2023-12-28T13:38:04;4.35;;;2.00;;
49488;SDS011;35382;51.484;11.476;2023-12-28T13:40:29;5.25;;;1.88;;
49488;SDS011;35382;51.484;11.476;2023-12-28T13:42:54;4.40;;;1.80;;
49488;SDS011;35382;51.484;11.476;2023-12-28T13:45:20;5.45;;;1.80;;
49488;SDS011;35382;51.484;11.476;2023-12-28T13:47:45;3.58;;;1.70;;
49488;SDS011;35382;51.484;11.476;2023-12-28T13:50:10;4.75;;;1.88;;
49488;SDS011;35382;51.484;11.476;2023-12-28T13:52:36;3.13;;;1.65;;
49488;SDS011;35382;51.484;11.476;2023-12-28T13:55:01;4.32;;;1.90;;
49488;SDS011;35382;51.484;11.476;2023-12-28T13:57:26;5.45;;;1.90;;
49488;SDS011;35382;51.484;11.476;2023-12-28T13:59:52;4.40;;;1.80;;
49488;SDS011;35382;51.484;11.476;2023-12-28T14:02:18;4.53;;;1.58;;
49488;SDS011;35382;51.484;11.476;2023-12-28T14:04:43;4.43;;;1.60;;
49488;SDS011;35382;51.484;11.476;2023-12-28T14:07:08;5.00;;;2.00;;
49488;SDS011;35382;51.484;11.476;2023-12-28T14:09:34;4.28;;;1.92;;
49488;SDS011;35382;51.484;11.476;2023-12-28T14:11:59;3.25;;;1.85;;
49488;SDS011;35382;51.484;11.476;2023-12-28T14:14:24;6.03;;;2.10;;
49488;SDS011;35382;51.484;11.476;2023-12-28T14:16:50;4.25;;;1.50;;
49488;SDS011;35382;51.484;11.476;2023-12-28T14:19:15;3.22;;;1.45;;
49488;SDS011;35382;51.484;11.476;2023-12-28T14:21:43;3.05;;;1.42;;
49488;SDS011;35382;51.484;11.476;2023-12-28T14:24:08;3.50;;;1.38;;
49488;SDS011;35382;51.484;11.476;2023-12-28T14:26:34;3.00;;;1.52;;
49488;SDS011;35382;51.484;11.476;2023-12-28T14:29:08;3.10;;;1.58;;
49488;SDS011;35382;51.484;11.476;2023-12-28T14:31:34;3.50;;;1.60;;
49488;SDS011;35382;51.484;11.476;2023-12-28T14:33:59;4.35;;;1.90;;
49488;SDS011;35382;51.484;11.476;2023-12-28T14:36:32;3.80;;;1.80;;